Time;durP1;ratioP1;P1;durP2;ratioP2;P2;SDS_P1;SDS_P2;PMS_P1;PMS_P2;Temp;Humidity;BMP_temperature;BMP_pressure;BME280_temperature;BME280_humidity;BME280_pressure;Samples;Min_cycle;Max_cycle;Signal;HPM_P1;HPM_P2
2021/08/27 00:01:57;;;;;;;6.47;3.00;;;15.70;99.90;;;;;;5053007;28;20272;-59
2021/08/27 00:04:23;;;;;;;4.00;3.13;;;15.70;99.90;;;;;;5053169;28;20436;-58
2021/08/27 00:06:48;;;;;;;3.83;3.10;;;15.70;99.90;;;;;;5053026;28;20193;-58
2021/08/27 00:09:14;;;;;;;6.10;3.40;;;15.90;99.90;;;;;;5052936;28;20201;-58
2021/08/27 00:11:39;;;;;;;5.43;3.67;;;16.00;99.90;;;;;;5052904;28;20594;-58
2021/08/27 00:14:05;;;;;;;3.83;3.43;;;16.00;99.90;;;;;;5052406;28;20204;-57
2021/08/27 00:16:30;;;;;;;4.23;3.00;;;15.90;99.90;;;;;;5053020;28;20192;-56
2021/08/27 00:18:56;;;;;;;5.07;3.93;;;16.00;99.90;;;;;;5052454;28;20171;-58
2021/08/27 00:21:24;;;;;;;4.43;3.13;;;16.10;99.90;;;;;;5053111;28;20165;-54
2021/08/27 00:23:50;;;;;;;3.80;3.33;;;16.10;99.90;;;;;;5053310;28;20166;-57
2021/08/27 00:26:16;;;;;;;6.20;3.20;;;16.20;99.90;;;;;;5052629;28;20916;-56
2021/08/27 00:28:41;;;;;;;3.53;2.60;;;16.00;99.90;;;;;;5074034;23;20221;-60
2021/08/27 00:31:07;;;;;;;6.47;3.67;;;16.20;99.90;;;;;;5032878;28;20641;-62
2021/08/27 00:33:32;;;;;;;3.07;2.70;;;16.20;99.90;;;;;;5031758;28;20204;-62
2021/08/27 00:35:58;;;;;;;4.43;2.60;;;16.40;99.90;;;;;;5033502;28;20678;-61
2021/08/27 00:38:24;;;;;;;4.70;3.30;;;16.50;99.90;;;;;;5032881;28;20191;-62
2021/08/27 00:40:49;;;;;;;3.13;2.30;;;16.60;99.90;;;;;;5032884;28;20165;-62
2021/08/27 00:43:15;;;;;;;4.97;3.20;;;16.60;99.90;;;;;;5032833;28;20545;-62
2021/08/27 00:45:44;;;;;;;4.80;3.67;;;16.70;99.90;;;;;;5033096;28;20612;-63
2021/08/27 00:48:10;;;;;;;3.90;3.27;;;16.50;99.90;;;;;;5032634;28;20190;-62
2021/08/27 00:50:37;;;;;;;4.50;2.93;;;16.60;99.90;;;;;;5032608;28;20450;-62
2021/08/27 00:53:02;;;;;;;3.50;3.20;;;16.70;99.90;;;;;;5022018;28;20534;-63
2021/08/27 00:55:28;;;;;;;7.13;3.60;;;16.70;99.90;;;;;;5004795;28;20986;-63
2021/08/27 00:57:53;;;;;;;3.73;2.80;;;16.80;99.90;;;;;;5016294;28;20667;-62
2021/08/27 01:00:19;;;;;;;3.73;2.97;;;16.80;99.90;;;;;;5016553;28;20241;-61
2021/08/27 01:02:45;;;;;;;4.20;3.37;;;16.80;99.90;;;;;;5016717;28;20210;-62
2021/08/27 01:05:11;;;;;;;5.23;3.20;;;16.80;99.90;;;;;;5016569;28;20588;-63
2021/08/27 01:07:53;;;;;;;3.10;2.80;;;16.70;99.90;;;;;;5016339;28;20928;-62
2021/08/27 01:10:32;;;;;;;3.63;3.20;;;16.80;99.90;;;;;;5016400;28;20390;-62
2021/08/27 01:13:19;;;;;;;4.00;2.93;;;16.90;99.90;;;;;;5016237;28;20860;-62
2021/08/27 01:15:56;;;;;;;4.30;3.20;;;16.90;99.90;;;;;;5016576;28;20387;-62
2021/08/27 01:18:39;;;;;;;4.07;2.90;;;16.80;99.90;;;;;;5016576;28;20426;-62
2021/08/27 01:21:26;;;;;;;5.80;3.20;;;16.70;99.90;;;;;;5016302;28;20397;-62
2021/08/27 01:23:56;;;;;;;6.37;3.40;;;16.80;99.90;;;;;;5016254;28;20390;-61
2021/08/27 01:26:26;;;;;;;3.77;2.60;;;16.60;99.90;;;;;;5016296;28;20434;-61
2021/08/27 01:28:54;;;;;;;4.57;2.93;;;16.70;99.90;;;;;;5015625;28;20450;-61
2021/08/27 01:31:25;;;;;;;3.60;3.13;;;16.80;99.90;;;;;;5016160;28;20418;-61
2021/08/27 01:34:11;;;;;;;4.80;3.20;;;16.80;99.90;;;;;;5019529;28;20981;-61
2021/08/27 01:36:38;;;;;;;3.10;2.80;;;16.80;99.90;;;;;;5035650;28;20776;-62
2021/08/27 01:39:06;;;;;;;5.70;3.57;;;16.70;99.90;;;;;;5035515;28;20456;-63
2021/08/27 01:41:35;;;;;;;3.60;3.10;;;16.70;99.90;;;;;;5035847;28;20397;-62
2021/08/27 01:44:03;;;;;;;4.27;2.73;;;16.70;99.90;;;;;;5035610;28;20455;-62
2021/08/27 01:46:35;;;;;;;4.90;3.57;;;16.70;99.90;;;;;;5035930;28;20460;-62
2021/08/27 01:49:08;;;;;;;4.73;3.40;;;16.80;99.90;;;;;;5035644;28;20424;-62
2021/08/27 01:51:35;;;;;;;4.60;3.10;;;16.50;99.90;;;;;;5035765;28;20400;-61
2021/08/27 01:54:03;;;;;;;5.27;3.23;;;16.60;99.90;;;;;;5035136;28;20988;-61
2021/08/27 01:56:33;;;;;;;3.83;3.50;;;16.60;99.90;;;;;;5035293;28;20493;-63
2021/08/27 01:59:00;;;;;;;4.73;3.13;;;16.70;99.90;;;;;;5034955;28;20426;-62
2021/08/27 02:01:28;;;;;;;4.83;3.57;;;16.60;99.90;;;;;;5035077;28;20397;-62
2021/08/27 02:03:54;;;;;;;4.77;3.50;;;16.60;99.90;;;;;;5034986;28;20511;-62
2021/08/27 02:06:22;;;;;;;4.10;3.37;;;16.40;99.90;;;;;;5010410;28;20407;-62
2021/08/27 02:08:51;;;;;;;6.37;3.50;;;16.50;99.90;;;;;;4995913;28;20430;-62
2021/08/27 02:11:18;;;;;;;3.93;3.53;;;16.40;99.90;;;;;;4995622;28;20455;-62
2021/08/27 02:13:44;;;;;;;4.00;2.40;;;16.20;99.90;;;;;;4995273;28;20529;-62
2021/08/27 02:16:12;;;;;;;5.60;3.80;;;16.40;99.90;;;;;;4995513;28;20405;-62
2021/08/27 02:18:38;;;;;;;4.03;3.50;;;16.30;99.90;;;;;;4995446;28;20944;-62
2021/08/27 02:21:06;;;;;;;5.80;3.53;;;16.50;99.90;;;;;;4995345;28;20404;-62
2021/08/27 02:23:33;;;;;;;6.77;3.57;;;16.50;99.90;;;;;;4995656;28;20632;-62
2021/08/27 02:26:01;;;;;;;5.23;4.00;;;16.50;99.90;;;;;;4995465;28;20422;-62
2021/08/27 02:28:28;;;;;;;5.17;4.23;;;16.50;99.90;;;;;;4994909;28;20454;-62
2021/08/27 02:30:55;;;;;;;6.43;3.60;;;16.40;99.90;;;;;;4995523;28;20409;-63
2021/08/27 02:33:22;;;;;;;4.03;3.63;;;16.40;99.90;;;;;;4995409;28;20459;-62
2021/08/27 02:35:48;;;;;;;4.90;4.03;;;16.40;99.90;;;;;;5015035;28;20449;-62
2021/08/27 02:38:26;;;;;;;5.40;4.40;;;16.30;99.90;;;;;;5015148;28;20453;-62
2021/08/27 02:40:51;;;;;;;5.37;4.17;;;16.30;99.90;;;;;;5015255;28;20390;-62
2021/08/27 02:43:17;;;;;;;7.57;3.87;;;16.00;99.90;;;;;;5014477;28;20931;-62
2021/08/27 02:45:42;;;;;;;5.83;4.50;;;15.80;99.90;;;;;;5014813;28;20177;-62
2021/08/27 02:48:08;;;;;;;6.67;3.90;;;15.80;99.90;;;;;;5014510;28;20187;-62
2021/08/27 02:50:54;;;;;;;5.57;3.83;;;16.00;99.90;;;;;;5014436;28;20179;-62
2021/08/27 02:53:23;;;;;;;5.90;4.43;;;15.90;99.90;;;;;;5014707;28;20444;-62
2021/08/27 02:55:56;;;;;;;5.70;4.33;;;16.00;99.90;;;;;;5014559;28;20833;-62
2021/08/27 02:58:26;;;;;;;6.77;4.90;;;15.90;99.90;;;;;;5014207;28;20420;-62
2021/08/27 03:01:04;;;;;;;5.50;4.10;;;15.90;99.90;;;;;;5014727;28;20555;-62
2021/08/27 03:03:34;;;;;;;5.93;3.50;;;16.00;99.90;;;;;;5015267;28;20473;-62
2021/08/27 03:06:15;;;;;;;4.17;3.70;;;16.10;99.90;;;;;;5034113;28;20409;-63
2021/08/27 03:08:45;;;;;;;6.27;4.00;;;16.00;99.90;;;;;;5034179;28;20818;-63
2021/08/27 03:11:15;;;;;;;6.20;4.60;;;16.10;99.90;;;;;;5033963;28;20425;-63
2021/08/27 03:13:46;;;;;;;5.30;3.90;;;16.20;99.90;;;;;;5033974;28;20454;-63
2021/08/27 03:16:16;;;;;;;7.50;4.80;;;16.20;99.90;;;;;;5034015;28;20388;-62
2021/08/27 03:19:05;;;;;;;9.10;4.60;;;16.20;99.90;;;;;;5033332;28;20434;-62
2021/08/27 03:21:45;;;;;;;5.77;4.50;;;16.10;99.90;;;;;;5033690;28;20412;-62
2021/08/27 03:24:25;;;;;;;7.63;4.97;;;15.80;99.90;;;;;;5033887;28;20401;-62
2021/08/27 03:26:59;;;;;;;6.13;5.27;;;15.70;99.90;;;;;;5033750;28;20428;-63
2021/08/27 03:29:30;;;;;;;8.90;4.87;;;15.70;99.90;;;;;;5033395;28;20758;-62
2021/08/27 03:31:56;;;;;;;6.23;4.57;;;15.60;99.90;;;;;;5033535;28;20797;-62
2021/08/27 03:34:24;;;;;;;5.40;4.80;;;15.70;99.90;;;;;;5033412;28;20445;-62
2021/08/27 03:36:51;;;;;;;6.03;5.40;;;15.70;99.90;;;;;;5033407;28;20915;-61
2021/08/27 03:39:19;;;;;;;5.10;4.60;;;15.60;99.90;;;;;;5033481;28;20429;-63
2021/08/27 03:41:45;;;;;;;12.27;5.10;;;15.70;99.90;;;;;;5033829;28;20400;-63
2021/08/27 03:44:14;;;;;;;9.93;6.47;;;15.70;99.90;;;;;;5033157;28;20420;-62
2021/08/27 03:46:40;;;;;;;7.37;6.67;;;15.70;99.90;;;;;;5011112;28;20180;-62
2021/08/27 03:49:06;;;;;;;8.70;7.60;;;15.70;99.90;;;;;;5009933;28;20438;-61
2021/08/27 03:51:33;;;;;;;8.27;7.40;;;15.60;99.90;;;;;;5014260;28;20182;-62
2021/08/27 03:53:59;;;;;;;9.33;7.70;;;15.50;99.90;;;;;;5013882;28;20460;-62
2021/08/27 03:56:26;;;;;;;9.93;8.13;;;15.60;99.90;;;;;;5010189;28;20414;-62
2021/08/27 03:58:53;;;;;;;9.67;8.13;;;15.70;99.90;;;;;;4993807;28;20780;-62
2021/08/27 04:01:21;;;;;;;11.40;8.50;;;15.60;99.90;;;;;;5000773;28;21004;-62
2021/08/27 04:03:47;;;;;;;8.63;7.67;;;15.80;99.90;;;;;;5033450;28;20409;-62
2021/08/27 04:06:12;;;;;;;11.00;8.07;;;15.90;99.90;;;;;;5033239;28;20410;-62
2021/08/27 04:08:42;;;;;;;8.73;7.83;;;15.80;99.90;;;;;;5033265;28;20277;-62
2021/08/27 04:11:10;;;;;;;11.43;8.40;;;15.60;99.90;;;;;;5033552;28;20183;-62
2021/08/27 04:13:36;;;;;;;9.37;7.20;;;15.50;99.90;;;;;;5032944;28;20811;-61
2021/08/27 04:16:02;;;;;;;10.83;8.03;;;15.40;99.90;;;;;;5033350;28;20413;-63
2021/08/27 04:18:28;;;;;;;11.23;8.03;;;15.50;99.90;;;;;;5033381;28;20205;-62
2021/08/27 04:20:53;;;;;;;7.20;6.50;;;15.50;99.90;;;;;;5033101;28;20405;-63
2021/08/27 04:23:19;;;;;;;7.10;6.40;;;15.70;99.90;;;;;;5033163;28;20179;-63
2021/08/27 04:25:45;;;;;;;7.13;6.47;;;15.70;99.90;;;;;;5033218;28;20660;-62
2021/08/27 04:28:11;;;;;;;6.00;5.40;;;15.50;99.90;;;;;;5032434;28;20487;-62
2021/08/27 04:30:37;;;;;;;9.20;6.10;;;15.50;99.90;;;;;;5035759;28;20181;-63
2021/08/27 04:33:03;;;;;;;7.73;5.90;;;15.50;99.90;;;;;;5036705;28;20197;-62
2021/08/27 04:35:29;;;;;;;6.40;5.60;;;15.70;99.90;;;;;;5036809;28;20397;-62
2021/08/27 04:37:55;;;;;;;7.10;5.73;;;15.60;99.90;;;;;;5036930;28;20539;-62
2021/08/27 04:40:21;;;;;;;6.33;5.50;;;15.50;99.90;;;;;;5036624;28;20407;-63
2021/08/27 04:42:47;;;;;;;5.83;5.33;;;15.60;99.90;;;;;;5036269;28;20309;-63
2021/08/27 04:45:13;;;;;;;7.23;6.27;;;15.60;99.90;;;;;;5036552;28;20444;-62
2021/08/27 04:47:39;;;;;;;7.43;5.90;;;15.60;99.90;;;;;;5035376;28;20198;-62
2021/08/27 04:50:06;;;;;;;6.03;5.30;;;15.70;99.90;;;;;;5036543;28;20176;-61
2021/08/27 04:52:32;;;;;;;7.70;6.07;;;15.80;99.90;;;;;;5036565;28;20421;-62
2021/08/27 04:54:57;;;;;;;6.83;6.13;;;15.70;99.90;;;;;;5035397;28;20475;-62
2021/08/27 04:57:23;;;;;;;7.97;6.60;;;15.70;99.90;;;;;;5036035;28;20200;-63
2021/08/27 04:59:50;;;;;;;7.67;6.70;;;15.70;99.90;;;;;;5036493;28;20185;-62
2021/08/27 05:02:16;;;;;;;8.63;7.07;;;15.60;99.90;;;;;;5035368;28;20785;-62
2021/08/27 05:04:41;;;;;;;9.70;7.57;;;15.70;99.90;;;;;;5036202;28;20457;-63
2021/08/27 05:07:07;;;;;;;11.93;8.10;;;15.70;99.90;;;;;;5035985;28;20189;-62
2021/08/27 05:09:33;;;;;;;14.60;8.57;;;15.60;99.90;;;;;;5036998;28;20247;-62
2021/08/27 05:11:59;;;;;;;11.77;8.20;;;15.70;99.90;;;;;;5036099;28;20412;-63
2021/08/27 05:14:24;;;;;;;12.67;8.03;;;15.70;99.90;;;;;;5035859;28;20603;-62
2021/08/27 05:16:50;;;;;;;12.63;10.37;;;15.60;99.90;;;;;;5034475;28;20168;-62
2021/08/27 05:19:15;;;;;;;12.13;10.93;;;15.60;99.90;;;;;;5036176;28;20350;-62
2021/08/27 05:21:41;;;;;;;10.83;9.73;;;15.30;99.90;;;;;;5036100;28;20538;-62
2021/08/27 05:24:07;;;;;;;10.63;9.63;;;15.40;99.90;;;;;;5034396;28;20186;-63
2021/08/27 05:26:34;;;;;;;14.27;12.40;;;15.50;99.90;;;;;;5035910;28;20589;-63
2021/08/27 05:29:00;;;;;;;14.87;12.10;;;15.50;99.90;;;;;;5035780;28;20455;-62
2021/08/27 05:31:26;;;;;;;15.17;12.53;;;15.40;99.90;;;;;;5035751;28;20864;-62
2021/08/27 05:33:51;;;;;;;13.70;12.27;;;15.40;99.90;;;;;;5035806;28;20479;-62
2021/08/27 05:36:17;;;;;;;14.73;12.47;;;15.40;99.90;;;;;;5034330;28;20193;-62
2021/08/27 05:38:42;;;;;;;14.47;12.67;;;15.50;99.90;;;;;;5035445;28;20193;-62
2021/08/27 05:41:08;;;;;;;14.47;12.30;;;15.40;99.90;;;;;;5035591;28;20216;-62
2021/08/27 05:43:34;;;;;;;13.70;12.30;;;15.40;99.90;;;;;;5035511;28;20216;-62
2021/08/27 05:46:00;;;;;;;14.43;12.30;;;15.40;99.90;;;;;;5035729;28;20176;-62
2021/08/27 05:48:26;;;;;;;13.70;12.07;;;15.50;99.90;;;;;;5035570;28;20205;-62
2021/08/27 05:50:52;;;;;;;12.07;10.80;;;15.70;99.90;;;;;;5050232;28;20784;-63
2021/08/27 05:53:17;;;;;;;14.53;11.50;;;15.80;99.90;;;;;;5035502;28;20562;-63
2021/08/27 05:55:43;;;;;;;12.73;11.43;;;16.00;99.90;;;;;;5035829;28;20794;-62
2021/08/27 05:58:08;;;;;;;11.13;10.13;;;15.80;99.90;;;;;;5035502;28;20639;-62
2021/08/27 06:00:35;;;;;;;13.97;10.60;;;15.80;99.90;;;;;;5035132;28;20634;-61
2021/08/27 06:03:00;;;;;;;12.97;10.93;;;15.90;99.90;;;;;;5035577;28;20183;-61
2021/08/27 06:05:27;;;;;;;9.90;8.70;;;15.90;99.90;;;;;;5024769;28;20496;-63
2021/08/27 06:07:53;;;;;;;10.60;9.60;;;15.90;99.90;;;;;;5015087;28;20201;-62
2021/08/27 06:10:18;;;;;;;9.70;8.33;;;15.70;99.90;;;;;;5015153;28;20476;-62
2021/08/27 06:12:44;;;;;;;9.37;8.20;;;15.80;99.90;;;;;;5015022;28;20254;-62
2021/08/27 06:15:11;;;;;;;9.37;8.40;;;16.00;99.90;;;;;;5015384;28;20170;-62
2021/08/27 06:17:37;;;;;;;9.50;8.33;;;16.20;99.90;;;;;;5015175;28;20254;-61
2021/08/27 06:20:04;;;;;;;8.73;7.60;;;16.10;99.90;;;;;;5015102;28;20405;-62
2021/08/27 06:22:29;;;;;;;8.83;7.60;;;16.00;99.90;;;;;;5014567;28;20261;-62
2021/08/27 06:24:55;;;;;;;8.40;7.60;;;16.20;99.90;;;;;;5015174;28;20434;-63
2021/08/27 06:27:21;;;;;;;8.10;6.80;;;16.10;99.90;;;;;;5014917;28;20251;-62
2021/08/27 06:29:46;;;;;;;8.40;7.10;;;16.20;99.90;;;;;;5053785;23;20252;-57
2021/08/27 06:32:13;;;;;;;6.90;6.20;;;16.10;99.90;;;;;;5034821;28;20169;-55
2021/08/27 06:34:38;;;;;;;8.30;6.93;;;15.90;99.90;;;;;;5034424;28;20214;-57
2021/08/27 06:37:04;;;;;;;6.90;6.00;;;15.80;99.90;;;;;;5034417;28;20417;-56
2021/08/27 06:39:30;;;;;;;10.17;7.97;;;15.90;99.90;;;;;;5013713;28;20203;-57
2021/08/27 06:41:55;;;;;;;8.10;6.17;;;16.00;99.90;;;;;;4998280;28;20413;-55
2021/08/27 06:44:21;;;;;;;9.17;6.70;;;16.00;99.90;;;;;;4977125;28;20213;-57
2021/08/27 06:46:48;;;;;;;6.07;5.47;;;16.20;99.90;;;;;;4994759;28;20171;-57
2021/08/27 06:49:14;;;;;;;6.60;6.00;;;16.10;99.90;;;;;;4994864;28;20197;-57
2021/08/27 06:51:42;;;;;;;6.63;5.47;;;16.10;99.90;;;;;;4994810;28;20406;-57
2021/08/27 06:54:08;;;;;;;11.07;6.10;;;16.20;99.90;;;;;;4993683;28;20190;-55
2021/08/27 06:56:34;;;;;;;5.63;4.97;;;16.10;99.90;;;;;;5019668;28;20474;-57
2021/08/27 06:58:59;;;;;;;9.53;5.83;;;15.90;99.90;;;;;;5033731;28;20421;-57
2021/08/27 07:01:26;;;;;;;6.13;5.40;;;16.00;99.90;;;;;;5034338;28;20168;-57
2021/08/27 07:03:52;;;;;;;5.83;5.23;;;16.10;99.90;;;;;;5034211;28;20180;-57
2021/08/27 07:06:18;;;;;;;7.30;5.27;;;16.20;99.90;;;;;;5034480;28;20905;-54
2021/08/27 07:08:44;;;;;;;5.00;4.50;;;16.10;99.90;;;;;;5010161;28;20529;-55
2021/08/27 07:11:10;;;;;;;6.53;5.80;;;16.10;99.90;;;;;;4995911;28;20444;-53
2021/08/27 07:13:35;;;;;;;5.13;4.63;;;16.20;99.90;;;;;;4993911;28;20709;-48
2021/08/27 07:16:01;;;;;;;7.33;5.07;;;16.20;99.90;;;;;;4993614;28;20500;-48
2021/08/27 07:18:27;;;;;;;5.80;3.83;;;16.20;99.90;;;;;;4993875;28;20690;-55
2021/08/27 07:20:53;;;;;;;4.20;3.60;;;16.50;99.90;;;;;;4994348;28;20526;-56
2021/08/27 07:23:19;;;;;;;4.70;3.60;;;16.70;99.90;;;;;;4994266;28;20518;-50
2021/08/27 07:25:45;;;;;;;5.43;4.23;;;16.70;99.90;;;;;;5006576;28;20423;-56
2021/08/27 07:28:11;;;;;;;4.53;4.13;;;16.60;99.90;;;;;;5033241;28;20755;-56
2021/08/27 07:30:36;;;;;;;4.00;3.60;;;16.70;99.90;;;;;;5033999;28;20428;-56
2021/08/27 07:33:03;;;;;;;3.60;3.17;;;16.80;99.90;;;;;;5033154;28;20679;-50
2021/08/27 07:35:29;;;;;;;4.73;3.73;;;16.60;99.90;;;;;;5033851;28;20176;-49
2021/08/27 07:37:54;;;;;;;3.93;3.63;;;16.60;99.90;;;;;;5034118;28;20406;-56
2021/08/27 07:40:20;;;;;;;6.10;4.20;;;16.70;99.90;;;;;;5033789;28;20173;-56
2021/08/27 07:42:46;;;;;;;6.23;3.50;;;16.80;99.90;;;;;;5033659;28;20536;-57
2021/08/27 07:45:13;;;;;;;6.90;3.53;;;16.80;99.90;;;;;;5032984;28;20712;-51
2021/08/27 07:47:39;;;;;;;5.53;4.10;;;16.70;99.90;;;;;;5034044;28;20623;-52
2021/08/27 07:50:05;;;;;;;5.33;3.13;;;16.90;99.90;;;;;;5033324;28;20459;-52
2021/08/27 07:52:31;;;;;;;5.47;3.30;;;17.00;99.90;;;;;;5033424;28;20409;-48
2021/08/27 07:54:57;;;;;;;5.70;2.27;;;17.10;99.90;;;;;;5033546;28;20500;-48
2021/08/27 07:57:22;;;;;;;6.43;2.80;;;17.00;99.90;;;;;;5033239;28;20789;-48
2021/08/27 07:59:48;;;;;;;4.17;2.50;;;17.10;99.90;;;;;;5032805;28;20183;-51
2021/08/27 08:02:14;;;;;;;4.40;2.70;;;17.40;99.90;;;;;;5032182;28;20193;-52
2021/08/27 08:04:41;;;;;;;5.30;2.50;;;17.50;99.90;;;;;;4999561;28;20256;-55
2021/08/27 08:07:07;;;;;;;5.90;2.33;;;17.50;99.90;;;;;;4993871;28;20408;-55
2021/08/27 08:09:32;;;;;;;4.37;2.40;;;17.30;99.90;;;;;;4993859;28;20432;-56
2021/08/27 08:11:58;;;;;;;3.90;1.97;;;17.10;99.90;;;;;;4993838;28;20168;-56
2021/08/27 08:14:23;;;;;;;4.50;2.00;;;17.20;99.90;;;;;;4993498;28;20201;-51
2021/08/27 08:16:49;;;;;;;2.67;2.03;;;16.80;99.90;;;;;;4993735;28;20285;-48
2021/08/27 08:19:16;;;;;;;3.37;2.20;;;16.90;99.90;;;;;;4993622;28;20238;-50
2021/08/27 08:21:42;;;;;;;3.60;2.73;;;17.10;99.90;;;;;;4993934;28;20165;-52
2021/08/27 08:24:07;;;;;;;6.10;2.30;;;17.30;99.90;;;;;;4994007;28;20487;-51
2021/08/27 08:26:33;;;;;;;3.27;1.47;;;17.30;99.90;;;;;;4994013;28;20172;-48
2021/08/27 08:29:00;;;;;;;5.03;1.83;;;17.40;99.90;;;;;;4993312;28;20222;-51
2021/08/27 08:31:25;;;;;;;4.07;2.20;;;17.20;99.90;;;;;;4998754;28;20412;-50
2021/08/27 08:33:53;;;;;;;5.47;1.87;;;16.90;99.90;;;;;;5012977;28;20442;-50
2021/08/27 08:36:21;;;;;;;4.47;3.07;;;16.80;99.90;;;;;;5012988;28;20258;-48
2021/08/27 08:38:47;;;;;;;5.13;2.37;;;16.90;99.90;;;;;;5012878;28;20767;-50
2021/08/27 08:41:17;;;;;;;2.60;1.93;;;17.00;99.90;;;;;;5013070;28;20394;-49
2021/08/27 08:43:44;;;;;;;2.37;2.00;;;17.30;99.90;;;;;;5012686;28;20406;-49
2021/08/27 08:46:10;;;;;;;4.23;1.80;;;17.70;99.90;;;;;;5012860;28;20421;-50
2021/08/27 08:48:37;;;;;;;4.50;2.10;;;18.00;99.90;;;;;;5012865;28;20517;-49
2021/08/27 08:51:05;;;;;;;3.80;2.30;;;17.70;99.90;;;;;;5013304;28;20168;-48
2021/08/27 08:53:35;;;;;;;3.57;2.10;;;17.60;99.90;;;;;;5012922;28;20817;-54
2021/08/27 08:56:02;;;;;;;2.57;1.90;;;17.50;99.90;;;;;;5012936;28;20558;-50
2021/08/27 08:58:29;;;;;;;3.63;2.13;;;17.70;99.90;;;;;;5012566;28;21061;-51
2021/08/27 09:00:55;;;;;;;4.73;2.23;;;17.70;99.90;;;;;;5013397;28;20494;-54
2021/08/27 09:03:20;;;;;;;3.63;2.07;;;17.80;99.90;;;;;;5032548;28;20471;-52
2021/08/27 09:05:48;;;;;;;4.20;2.07;;;17.70;99.90;;;;;;5032812;28;20171;-49
2021/08/27 09:08:32;;;;;;;4.60;1.90;;;17.80;99.90;;;;;;5032329;28;20565;-56
2021/08/27 09:10:57;;;;;;;4.00;2.03;;;17.90;99.90;;;;;;5032339;28;20398;-55
2021/08/27 09:13:29;;;;;;;4.00;1.57;;;18.10;99.90;;;;;;5032351;28;20446;-50
2021/08/27 09:16:06;;;;;;;3.50;1.47;;;18.30;99.90;;;;;;5032856;28;20593;-53
2021/08/27 09:18:40;;;;;;;4.50;1.80;;;18.20;99.90;;;;;;5035885;28;20483;-55
2021/08/27 09:21:24;;;;;;;3.00;1.73;;;18.20;99.90;;;;;;5036083;28;20502;-55
2021/08/27 09:23:50;;;;;;;4.43;1.90;;;18.00;99.90;;;;;;5035942;28;20428;-57
2021/08/27 09:26:49;;;;;;;3.80;2.33;;;18.00;99.90;;;;;;5035995;28;20405;-55
2021/08/27 09:29:36;;;;;;;4.50;2.00;;;18.00;99.90;;;;;;4992112;28;20470;-56
2021/08/27 09:32:18;;;;;;;8.53;2.33;;;17.80;99.90;;;;;;5035566;28;20416;-57
2021/08/27 09:34:45;;;;;;;3.10;1.60;;;18.20;99.90;;;;;;5035793;28;20441;-56
2021/08/27 09:37:10;;;;;;;3.30;1.80;;;18.60;99.90;;;;;;5035692;28;20410;-56
2021/08/27 09:39:36;;;;;;;1.90;1.70;;;18.60;99.90;;;;;;5035885;28;20426;-57
2021/08/27 09:42:02;;;;;;;1.87;1.57;;;18.60;99.90;;;;;;5035926;28;20582;-57
2021/08/27 09:44:29;;;;;;;6.83;1.87;;;18.40;99.90;;;;;;5035642;28;20540;-48
2021/08/27 09:46:55;;;;;;;2.13;1.23;;;18.40;99.90;;;;;;5035928;28;20410;-52
2021/08/27 09:49:47;;;;;;;2.57;1.80;;;18.40;99.90;;;;;;5035646;28;20430;-49
2021/08/27 09:52:13;;;;;;;2.60;1.73;;;18.70;99.90;;;;;;5031757;28;20414;-50
2021/08/27 09:54:42;;;;;;;4.70;1.97;;;19.00;99.90;;;;;;5035693;28;20977;-48
2021/08/27 09:57:10;;;;;;;2.20;1.50;;;19.00;99.90;;;;;;5011671;28;20436;-50
2021/08/27 09:59:49;;;;;;;3.67;1.80;;;18.70;99.90;;;;;;4995394;28;20797;-54
2021/08/27 10:02:29;;;;;;;3.53;1.80;;;18.60;99.90;;;;;;5018337;28;20406;-54
2021/08/27 10:05:00;;;;;;;2.37;1.77;;;18.20;99.90;;;;;;5015945;28;20909;-55
2021/08/27 10:07:34;;;;;;;2.97;2.03;;;18.40;99.90;;;;;;5015552;28;20394;-57
2021/08/27 10:10:02;;;;;;;2.93;1.87;;;18.70;99.90;;;;;;5015147;28;20419;-57
2021/08/27 10:12:30;;;;;;;9.17;2.90;;;18.70;99.90;;;;;;5015105;28;20407;-57
2021/08/27 10:14:56;;;;;;;4.10;1.90;;;18.90;99.90;;;;;;5015140;28;20415;-51
2021/08/27 10:17:22;;;;;;;4.13;2.47;;;19.00;99.90;;;;;;5015235;28;20752;-52
2021/08/27 10:19:48;;;;;;;3.17;2.20;;;19.10;99.90;;;;;;5015077;28;20506;-49
2021/08/27 10:22:14;;;;;;;3.30;2.43;;;19.10;99.90;;;;;;5015622;28;20251;-52
2021/08/27 10:24:43;;;;;;;2.57;2.33;;;19.30;99.90;;;;;;5015147;28;20172;-50
2021/08/27 10:27:10;;;;;;;2.50;2.30;;;19.70;99.90;;;;;;5014871;28;20192;-49
2021/08/27 10:29:56;;;;;;;3.00;2.37;;;19.60;99.90;;;;;;5014445;28;20446;-50
2021/08/27 10:32:40;;;;;;;2.67;1.87;;;19.10;99.90;;;;;;5027365;28;20418;-51
2021/08/27 10:35:11;;;;;;;6.50;2.70;;;19.00;99.90;;;;;;5034803;28;20438;-48
2021/08/27 10:37:48;;;;;;;2.03;1.77;;;19.20;99.90;;;;;;5033416;28;20422;-56
2021/08/27 10:40:26;;;;;;;3.70;2.30;;;19.30;99.90;;;;;;5034715;28;20398;-50
2021/08/27 10:42:59;;;;;;;2.23;1.90;;;19.30;99.90;;;;;;5034289;28;20394;-53
2021/08/27 10:45:40;;;;;;;4.13;2.57;;;19.50;99.90;;;;;;5034154;28;20397;-48
2021/08/27 10:48:17;;;;;;;7.03;3.97;;;19.50;99.90;;;;;;5034571;28;20807;-51
2021/08/27 10:50:47;;;;;;;5.43;2.50;;;19.20;99.90;;;;;;5034467;28;20410;-49
2021/08/27 10:53:34;;;;;;;3.10;2.30;;;19.20;99.90;;;;;;5034149;28;20426;-50
2021/08/27 10:56:03;;;;;;;7.07;3.17;;;19.20;99.90;;;;;;5033110;28;20424;-48
2021/08/27 10:58:51;;;;;;;4.20;2.17;;;19.50;99.90;;;;;;5034139;28;20429;-50
2021/08/27 11:01:30;;;;;;;4.30;2.30;;;21.20;99.90;;;;;;5034224;28;20759;-48
2021/08/27 11:04:13;;;;;;;4.27;2.67;;;22.60;96.90;;;;;;5034226;28;20406;-49
2021/08/27 11:07:07;;;;;;;5.33;2.47;;;23.60;94.30;;;;;;5034270;28;20418;-52
2021/08/27 11:09:34;;;;;;;3.27;2.77;;;25.00;91.50;;;;;;5026194;28;20440;-49
2021/08/27 11:12:10;;;;;;;3.07;2.30;;;24.00;91.40;;;;;;5033710;28;20410;-50
2021/08/27 11:14:38;;;;;;;3.10;2.00;;;23.40;93.00;;;;;;5033743;28;20879;-50
2021/08/27 11:17:06;;;;;;;3.50;2.03;;;22.20;94.70;;;;;;5032672;28;20418;-51
2021/08/27 11:19:34;;;;;;;4.53;2.17;;;21.20;96.80;;;;;;5033738;28;20474;-50
2021/08/27 11:22:11;;;;;;;4.50;2.57;;;20.20;98.40;;;;;;5033803;28;20394;-49
2021/08/27 11:24:38;;;;;;;4.20;2.80;;;19.60;99.60;;;;;;5033920;28;20420;-53
2021/08/27 11:27:22;;;;;;;2.70;2.00;;;19.50;99.60;;;;;;5033701;28;20402;-49
2021/08/27 11:29:50;;;;;;;4.50;2.50;;;19.00;99.40;;;;;;5033381;28;20541;-51
2021/08/27 11:32:28;;;;;;;4.37;2.70;;;19.10;99.90;;;;;;5032320;28;20430;-51
2021/08/27 11:34:57;;;;;;;3.17;2.60;;;19.30;99.90;;;;;;5033535;28;20414;-51
2021/08/27 11:37:28;;;;;;;3.47;2.20;;;19.70;99.90;;;;;;5033774;28;20840;-49
2021/08/27 11:39:54;;;;;;;3.17;2.60;;;19.80;99.10;;;;;;5033072;28;20426;-52
2021/08/27 11:42:21;;;;;;;3.60;2.73;;;20.20;99.30;;;;;;5033712;28;20390;-50
2021/08/27 11:45:08;;;;;;;3.00;2.10;;;20.20;99.90;;;;;;5033228;28;20186;-51
2021/08/27 11:47:40;;;;;;;3.40;2.07;;;20.40;99.90;;;;;;5033563;28;20387;-48
2021/08/27 11:50:11;;;;;;;4.10;2.37;;;21.30;98.60;;;;;;5033972;28;20418;-48
2021/08/27 11:52:37;;;;;;;3.30;2.33;;;22.30;97.20;;;;;;5033671;28;20840;-48
2021/08/27 11:55:05;;;;;;;4.70;2.57;;;24.40;95.50;;;;;;5033310;28;20404;-48
2021/08/27 11:57:32;;;;;;;4.70;2.30;;;24.40;95.10;;;;;;5017362;28;20406;-56
2021/08/27 12:00:07;;;;;;;2.40;1.70;;;23.50;95.50;;;;;;4993853;28;20928;-57
2021/08/27 12:02:33;;;;;;;3.70;2.50;;;24.20;95.00;;;;;;5007619;28;20456;-56
2021/08/27 12:05:01;;;;;;;2.40;1.80;;;23.50;94.20;;;;;;5016868;28;20819;-49
2021/08/27 12:07:30;;;;;;;2.70;1.60;;;23.70;94.40;;;;;;5033095;28;20195;-53
2021/08/27 12:10:05;;;;;;;4.07;2.20;;;22.90;94.60;;;;;;5033235;28;20426;-52
2021/08/27 12:12:32;;;;;;;6.75;2.30;;;22.20;96.20;;;;;;5033469;28;20394;-51
2021/08/27 12:14:58;;;;;;;3.03;2.17;;;21.50;96.90;;;;;;5033221;28;20472;-54
2021/08/27 12:17:26;;;;;;;4.10;2.00;;;20.70;97.80;;;;;;5033014;28;20410;-56
2021/08/27 12:19:53;;;;;;;7.50;2.53;;;20.60;98.80;;;;;;5033337;28;20245;-55
2021/08/27 12:22:21;;;;;;;10.90;2.20;;;20.60;98.40;;;;;;5032686;28;20438;-53
2021/08/27 12:24:49;;;;;;;3.37;1.73;;;21.60;98.20;;;;;;5031503;28;20466;-54
2021/08/27 12:27:15;;;;;;;2.30;1.97;;;23.50;95.60;;;;;;5032912;28;20489;-56
2021/08/27 12:29:41;;;;;;;4.17;2.13;;;23.70;94.30;;;;;;5032925;28;20524;-54
2021/08/27 12:32:13;;;;;;;3.90;2.30;;;23.00;94.60;;;;;;5031870;28;20172;-55
2021/08/27 12:34:41;;;;;;;5.93;1.67;;;21.80;95.50;;;;;;5033200;28;20430;-53
2021/08/27 12:37:07;;;;;;;3.17;1.67;;;21.00;95.40;;;;;;5032913;28;20785;-55
2021/08/27 12:39:33;;;;;;;2.83;1.60;;;20.80;96.40;;;;;;5032717;28;20433;-55
2021/08/27 12:42:16;;;;;;;3.80;1.97;;;21.10;96.90;;;;;;5032747;28;20406;-55
2021/08/27 12:45:07;;;;;;;2.60;1.70;;;21.00;97.10;;;;;;5032747;28;20167;-51
2021/08/27 12:47:38;;;;;;;2.50;1.70;;;21.50;97.20;;;;;;5032651;28;20433;-55
2021/08/27 12:50:14;;;;;;;3.43;1.70;;;22.80;94.90;;;;;;5020475;28;21129;-56
2021/08/27 12:52:42;;;;;;;5.03;2.03;;;22.40;95.30;;;;;;4994891;28;20498;-57
2021/08/27 12:55:24;;;;;;;3.13;1.70;;;23.40;94.50;;;;;;5008601;28;20410;-55